createdAt,value
2023-01-19T00:07:13.332Z,1.90
2023-01-19T00:17:16.341Z,1.93
2023-01-19T00:27:23.447Z,2.06
2023-01-19T00:37:26.404Z,2.15
2023-01-19T00:47:32.161Z,2.18
2023-01-19T00:57:35.416Z,2.05
2023-01-19T01:07:45.130Z,1.94
2023-01-19T01:28:35.257Z,2.11
2023-01-19T01:38:38.396Z,2.28
2023-01-19T01:48:44.251Z,2.35
2023-01-19T01:58:47.849Z,2.24
2023-01-19T02:09:14.506Z,1.79
2023-01-19T02:19:23.470Z,1.56
2023-01-19T02:29:29.590Z,1.63
2023-01-19T02:39:36.055Z,1.59
2023-01-19T02:49:40.452Z,1.57
2023-01-19T02:59:54.529Z,1.31
2023-01-19T03:10:07.122Z,1.14
2023-01-19T03:20:13.691Z,1.04
2023-01-19T03:30:23.434Z,0.93
2023-01-19T03:40:30.270Z,0.85
2023-01-19T03:50:34.577Z,0.76
2023-01-19T04:00:37.599Z,0.70
2023-01-19T04:10:43.773Z,0.71
2023-01-19T04:20:46.708Z,0.79
2023-01-19T04:30:52.332Z,0.69
2023-01-19T04:40:55.366Z,0.68
2023-01-19T04:50:59.524Z,0.72
2023-01-19T05:01:02.352Z,0.60
2023-01-19T05:11:06.639Z,0.68
2023-01-19T05:21:09.446Z,0.74
2023-01-19T05:31:13.640Z,0.72
2023-01-19T05:41:17.711Z,0.73
2023-01-19T05:51:21.829Z,0.87
2023-01-19T06:01:24.951Z,0.82
2023-01-19T06:11:29.162Z,0.92
2023-01-19T06:21:32.555Z,0.90
2023-01-19T06:31:36.714Z,0.86
2023-01-19T06:41:39.542Z,0.89
2023-01-19T06:51:43.627Z,0.90
2023-01-19T07:01:46.528Z,0.93
2023-01-19T07:11:50.706Z,1.10
2023-01-19T07:21:53.443Z,1.15
2023-01-19T07:31:57.846Z,1.18
2023-01-19T07:42:00.557Z,1.17
2023-01-19T07:52:04.704Z,1.07
2023-01-19T08:02:07.984Z,1.03
2023-01-19T08:12:12.250Z,1.05
2023-01-19T08:22:14.972Z,1.02
2023-01-19T08:32:19.247Z,1.14
2023-01-19T08:42:22.272Z,1.18
2023-01-19T08:52:26.758Z,1.20
2023-01-19T09:02:29.861Z,1.33
2023-01-19T09:12:34.047Z,1.48
2023-01-19T09:22:36.844Z,1.54
2023-01-19T09:32:41.089Z,1.53
2023-01-19T09:42:44.698Z,1.57
2023-01-19T09:52:53.846Z,1.54
2023-01-19T10:03:00.099Z,1.60
2023-01-19T10:13:15.079Z,1.74
2023-01-19T10:23:35.004Z,1.88
2023-01-19T10:33:39.549Z,2.05
2023-01-19T10:43:43.471Z,1.96
2023-01-19T10:53:56.501Z,1.98
2023-01-19T11:04:05.596Z,2.11
2023-01-19T11:14:11.821Z,2.21
2023-01-19T11:24:16.520Z,2.31
2023-01-19T11:34:31.361Z,2.46
2023-01-19T11:44:35.534Z,2.54
2023-01-19T11:54:42.807Z,2.57
2023-01-19T12:04:48.081Z,2.64
2023-01-19T12:14:56.624Z,2.77
2023-01-19T12:25:03.005Z,2.88
2023-01-19T12:35:07.705Z,2.98
2023-01-19T12:45:14.647Z,3.04
2023-01-19T12:55:22.064Z,3.10
2023-01-19T13:05:45.784Z,3.02
2023-01-19T13:15:50.069Z,3.04
2023-01-19T13:25:54.714Z,3.15
2023-01-19T13:35:59.820Z,3.18
2023-01-19T13:46:03.624Z,3.02
2023-01-19T13:56:08.596Z,3.01
2023-01-19T14:06:22.276Z,3.12
2023-01-19T14:16:26.656Z,3.02
2023-01-19T14:26:47.230Z,3.09
2023-01-19T14:36:52.862Z,2.93
2023-01-19T14:46:55.729Z,2.70
2023-01-19T14:56:59.998Z,2.56
2023-01-19T15:07:02.843Z,2.45
2023-01-19T15:17:07.002Z,2.24
2023-01-19T15:27:10.599Z,2.22
2023-01-19T15:37:14.769Z,2.15
2023-01-19T15:47:17.585Z,2.08
2023-01-19T15:57:22.231Z,2.17
2023-01-19T16:07:25.052Z,2.11
2023-01-19T16:17:29.302Z,1.89
2023-01-19T16:27:32.047Z,1.72
2023-01-19T16:37:36.364Z,1.46
2023-01-19T16:47:39.807Z,1.21
2023-01-19T16:57:44.438Z,1.22
2023-01-19T17:07:47.220Z,1.11
2023-01-19T17:17:51.412Z,1.07
2023-01-19T17:27:54.172Z,0.99
2023-01-19T17:37:58.397Z,0.93
2023-01-19T17:48:01.196Z,0.81
2023-01-19T17:58:05.371Z,0.74
2023-01-19T18:08:08.138Z,0.65
2023-01-19T18:18:12.278Z,0.51
2023-01-19T18:28:15.093Z,0.52
2023-01-19T18:38:19.287Z,0.44
2023-01-19T18:48:22.174Z,0.34
2023-01-19T18:58:28.724Z,0.43
2023-01-19T19:08:33.539Z,0.39
2023-01-19T19:18:37.941Z,0.42
2023-01-19T19:28:41.515Z,0.43
2023-01-19T19:38:47.573Z,0.29
2023-01-19T19:48:50.368Z,0.27
2023-01-19T19:58:55.119Z,0.26
2023-01-19T20:08:58.160Z,0.23
2023-01-19T20:19:03.361Z,0.16
2023-01-19T20:29:07.284Z,0.10
2023-01-19T20:39:12.724Z,-0.03
2023-01-19T20:49:16.100Z,-0.06
2023-01-19T20:59:20.364Z,-0.07
2023-01-19T21:09:23.165Z,0.31
2023-01-19T21:19:27.298Z,0.66
2023-01-19T21:29:30.257Z,0.67
2023-01-19T21:39:34.385Z,0.75
2023-01-19T21:49:37.209Z,1.01
2023-01-19T21:59:41.366Z,1.06
2023-01-19T22:09:44.156Z,1.13
2023-01-19T22:19:48.722Z,1.12
2023-01-19T22:29:51.472Z,1.06
2023-01-19T22:39:55.661Z,1.10
2023-01-19T22:49:58.452Z,1.17
2023-01-19T23:00:03.077Z,1.12
2023-01-19T23:10:06.299Z,1.17
2023-01-19T23:20:11.586Z,1.07
2023-01-19T23:30:14.851Z,1.04
2023-01-19T23:40:19.418Z,1.21
2023-01-19T23:50:22.498Z,1.17
